sensor_id;sensor_type;location;lat;lon;timestamp;P1;durP1;ratioP1;P2;durP2;ratioP2
25449;SDS011;13371;52.080;5.624;2022-10-16T00:00:30;4.70;;;2.20;;
25449;SDS011;13371;52.080;5.624;2022-10-16T00:02:57;6.47;;;2.53;;
25449;SDS011;13371;52.080;5.624;2022-10-16T00:05:22;7.88;;;2.50;;
25449;SDS011;13371;52.080;5.624;2022-10-16T00:07:48;10.52;;;2.50;;
25449;SDS011;13371;52.080;5.624;2022-10-16T00:10:14;6.50;;;2.50;;
25449;SDS011;13371;52.080;5.624;2022-10-16T00:12:42;6.68;;;2.20;;
25449;SDS011;13371;52.080;5.624;2022-10-16T00:15:08;4.53;;;2.30;;
25449;SDS011;13371;52.080;5.624;2022-10-16T00:17:34;4.80;;;2.22;;
25449;SDS011;13371;52.080;5.624;2022-10-16T00:19:59;6.93;;;2.55;;
25449;SDS011;13371;52.080;5.624;2022-10-16T00:22:25;3.60;;;2.03;;
25449;SDS011;13371;52.080;5.624;2022-10-16T00:24:50;6.25;;;2.75;;
25449;SDS011;13371;52.080;5.624;2022-10-16T00:27:16;5.50;;;2.50;;
25449;SDS011;13371;52.080;5.624;2022-10-16T00:29:42;5.63;;;2.33;;
25449;SDS011;13371;52.080;5.624;2022-10-16T00:32:11;6.72;;;2.50;;
25449;SDS011;13371;52.080;5.624;2022-10-16T00:34:36;7.75;;;2.22;;
25449;SDS011;13371;52.080;5.624;2022-10-16T00:37:02;5.13;;;2.70;;
25449;SDS011;13371;52.080;5.624;2022-10-16T00:39:28;5.20;;;2.30;;
25449;SDS011;13371;52.080;5.624;2022-10-16T00:41:53;8.07;;;2.70;;
25449;SDS011;13371;52.080;5.624;2022-10-16T00:47:34;8.90;;;2.40;;
25449;SDS011;13371;52.080;5.624;2022-10-16T00:50:13;8.48;;;2.47;;
25449;SDS011;13371;52.080;5.624;2022-10-16T00:52:43;7.22;;;2.40;;
25449;SDS011;13371;52.080;5.624;2022-10-16T00:55:11;5.78;;;2.30;;
25449;SDS011;13371;52.080;5.624;2022-10-16T00:57:37;6.90;;;2.50;;
25449;SDS011;13371;52.080;5.624;2022-10-16T01:00:06;9.60;;;2.80;;
25449;SDS011;13371;52.080;5.624;2022-10-16T01:02:33;7.13;;;2.50;;
25449;SDS011;13371;52.080;5.624;2022-10-16T01:04:59;4.05;;;2.03;;
25449;SDS011;13371;52.080;5.624;2022-10-16T01:07:36;5.50;;;2.60;;
25449;SDS011;13371;52.080;5.624;2022-10-16T01:13:07;3.50;;;2.22;;
25449;SDS011;13371;52.080;5.624;2022-10-16T01:21:23;6.18;;;2.40;;
25449;SDS011;13371;52.080;5.624;2022-10-16T01:29:24;3.08;;;2.13;;
25449;SDS011;13371;52.080;5.624;2022-10-16T01:31:56;6.15;;;2.50;;
25449;SDS011;13371;52.080;5.624;2022-10-16T01:34:28;8.98;;;2.50;;
25449;SDS011;13371;52.080;5.624;2022-10-16T01:37:02;5.65;;;2.70;;
25449;SDS011;13371;52.080;5.624;2022-10-16T01:39:37;4.20;;;2.55;;
25449;SDS011;13371;52.080;5.624;2022-10-16T01:42:06;5.75;;;2.30;;
25449;SDS011;13371;52.080;5.624;2022-10-16T01:44:36;6.25;;;2.42;;
25449;SDS011;13371;52.080;5.624;2022-10-16T01:47:03;3.60;;;2.13;;
25449;SDS011;13371;52.080;5.624;2022-10-16T01:49:31;5.80;;;2.45;;
25449;SDS011;13371;52.080;5.624;2022-10-16T01:51:59;5.90;;;2.40;;
25449;SDS011;13371;52.080;5.624;2022-10-16T01:54:30;6.13;;;2.60;;
25449;SDS011;13371;52.080;5.624;2022-10-16T01:56:58;5.70;;;2.28;;
25449;SDS011;13371;52.080;5.624;2022-10-16T01:59:25;6.00;;;2.25;;
25449;SDS011;13371;52.080;5.624;2022-10-16T02:01:53;8.40;;;2.58;;
25449;SDS011;13371;52.080;5.624;2022-10-16T02:04:24;5.70;;;2.63;;
25449;SDS011;13371;52.080;5.624;2022-10-16T02:06:54;2.80;;;1.92;;
25449;SDS011;13371;52.080;5.624;2022-10-16T02:09:20;6.07;;;2.00;;
25449;SDS011;13371;52.080;5.624;2022-10-16T02:11:46;6.63;;;2.28;;
25449;SDS011;13371;52.080;5.624;2022-10-16T02:14:14;5.10;;;2.22;;
25449;SDS011;13371;52.080;5.624;2022-10-16T02:16:44;8.88;;;2.85;;
25449;SDS011;13371;52.080;5.624;2022-10-16T02:19:11;6.47;;;2.60;;
25449;SDS011;13371;52.080;5.624;2022-10-16T02:21:41;6.22;;;2.60;;
25449;SDS011;13371;52.080;5.624;2022-10-16T02:32:49;5.22;;;2.60;;
25449;SDS011;13371;52.080;5.624;2022-10-16T02:35:17;6.35;;;2.58;;
25449;SDS011;13371;52.080;5.624;2022-10-16T02:37:46;6.90;;;2.20;;
25449;SDS011;13371;52.080;5.624;2022-10-16T02:40:13;3.42;;;2.30;;
25449;SDS011;13371;52.080;5.624;2022-10-16T02:42:40;6.03;;;2.88;;
25449;SDS011;13371;52.080;5.624;2022-10-16T02:45:07;4.07;;;2.30;;
25449;SDS011;13371;52.080;5.624;2022-10-16T02:47:34;6.40;;;2.42;;
25449;SDS011;13371;52.080;5.624;2022-10-16T02:50:00;6.20;;;2.78;;
25449;SDS011;13371;52.080;5.624;2022-10-16T02:52:26;6.78;;;3.45;;
25449;SDS011;13371;52.080;5.624;2022-10-16T02:54:51;5.13;;;2.35;;
25449;SDS011;13371;52.080;5.624;2022-10-16T02:57:17;3.38;;;2.10;;
25449;SDS011;13371;52.080;5.624;2022-10-16T02:59:43;4.97;;;2.40;;
25449;SDS011;13371;52.080;5.624;2022-10-16T03:02:09;5.78;;;2.40;;
25449;SDS011;13371;52.080;5.624;2022-10-16T03:04:35;6.03;;;2.42;;
25449;SDS011;13371;52.080;5.624;2022-10-16T03:07:01;5.30;;;2.25;;
25449;SDS011;13371;52.080;5.624;2022-10-16T03:09:27;3.53;;;2.22;;
25449;SDS011;13371;52.080;5.624;2022-10-16T03:11:53;4.03;;;1.92;;
25449;SDS011;13371;52.080;5.624;2022-10-16T03:14:18;3.97;;;2.33;;
25449;SDS011;13371;52.080;5.624;2022-10-16T03:16:44;4.10;;;2.20;;
25449;SDS011;13371;52.080;5.624;2022-10-16T03:19:09;2.97;;;1.85;;
25449;SDS011;13371;52.080;5.624;2022-10-16T03:21:35;3.60;;;2.15;;
25449;SDS011;13371;52.080;5.624;2022-10-16T03:24:01;5.60;;;2.15;;
25449;SDS011;13371;52.080;5.624;2022-10-16T03:26:27;5.70;;;2.17;;
25449;SDS011;13371;52.080;5.624;2022-10-16T03:28:52;5.13;;;2.35;;
25449;SDS011;13371;52.080;5.624;2022-10-16T03:31:18;3.78;;;2.25;;
25449;SDS011;13371;52.080;5.624;2022-10-16T03:33:43;3.60;;;2.40;;
25449;SDS011;13371;52.080;5.624;2022-10-16T03:36:09;3.47;;;2.15;;
25449;SDS011;13371;52.080;5.624;2022-10-16T03:38:34;2.75;;;1.90;;
25449;SDS011;13371;52.080;5.624;2022-10-16T03:41:00;2.88;;;2.22;;
25449;SDS011;13371;52.080;5.624;2022-10-16T03:43:25;5.53;;;2.38;;
25449;SDS011;13371;52.080;5.624;2022-10-16T03:45:51;6.43;;;2.05;;
25449;SDS011;13371;52.080;5.624;2022-10-16T03:48:17;3.72;;;2.10;;
25449;SDS011;13371;52.080;5.624;2022-10-16T03:50:43;4.50;;;2.13;;
25449;SDS011;13371;52.080;5.624;2022-10-16T03:53:09;5.95;;;2.00;;
25449;SDS011;13371;52.080;5.624;2022-10-16T03:55:35;7.45;;;2.50;;
25449;SDS011;13371;52.080;5.624;2022-10-16T03:58:00;5.35;;;2.28;;
25449;SDS011;13371;52.080;5.624;2022-10-16T04:00:26;7.60;;;2.65;;
25449;SDS011;13371;52.080;5.624;2022-10-16T04:02:52;8.57;;;2.53;;
25449;SDS011;13371;52.080;5.624;2022-10-16T04:05:17;5.78;;;2.25;;
25449;SDS011;13371;52.080;5.624;2022-10-16T04:07:43;2.72;;;1.80;;
25449;SDS011;13371;52.080;5.624;2022-10-16T04:10:08;8.48;;;2.35;;
25449;SDS011;13371;52.080;5.624;2022-10-16T04:12:35;3.80;;;2.50;;
25449;SDS011;13371;52.080;5.624;2022-10-16T04:15:00;3.88;;;2.05;;
25449;SDS011;13371;52.080;5.624;2022-10-16T04:17:26;3.72;;;1.98;;
25449;SDS011;13371;52.080;5.624;2022-10-16T04:19:51;2.95;;;2.20;;
25449;SDS011;13371;52.080;5.624;2022-10-16T04:22:17;7.80;;;2.15;;
25449;SDS011;13371;52.080;5.624;2022-10-16T04:24:42;3.20;;;1.75;;
25449;SDS011;13371;52.080;5.624;2022-10-16T04:27:08;4.55;;;2.25;;
25449;SDS011;13371;52.080;5.624;2022-10-16T04:29:33;4.25;;;1.92;;
25449;SDS011;13371;52.080;5.624;2022-10-16T04:31:59;4.55;;;2.20;;
25449;SDS011;13371;52.080;5.624;2022-10-16T04:34:24;2.90;;;2.03;;
25449;SDS011;13371;52.080;5.624;2022-10-16T04:36:50;3.75;;;2.10;;
25449;SDS011;13371;52.080;5.624;2022-10-16T04:39:16;4.45;;;1.92;;
25449;SDS011;13371;52.080;5.624;2022-10-16T04:41:41;4.07;;;2.08;;
25449;SDS011;13371;52.080;5.624;2022-10-16T04:44:07;4.00;;;1.75;;
25449;SDS011;13371;52.080;5.624;2022-10-16T04:46:33;6.65;;;2.05;;
25449;SDS011;13371;52.080;5.624;2022-10-16T04:48:58;4.55;;;2.10;;
25449;SDS011;13371;52.080;5.624;2022-10-16T04:51:24;3.78;;;1.88;;
25449;SDS011;13371;52.080;5.624;2022-10-16T04:53:50;2.30;;;1.60;;
25449;SDS011;13371;52.080;5.624;2022-10-16T04:56:16;6.00;;;1.98;;
25449;SDS011;13371;52.080;5.624;2022-10-16T04:58:42;3.13;;;1.92;;
25449;SDS011;13371;52.080;5.624;2022-10-16T05:01:07;7.07;;;1.90;;
25449;SDS011;13371;52.080;5.624;2022-10-16T05:03:33;5.82;;;2.08;;
25449;SDS011;13371;52.080;5.624;2022-10-16T05:05:58;4.55;;;2.03;;
25449;SDS011;13371;52.080;5.624;2022-10-16T05:08:24;3.45;;;1.55;;
25449;SDS011;13371;52.080;5.624;2022-10-16T05:10:49;2.45;;;1.80;;
25449;SDS011;13371;52.080;5.624;2022-10-16T05:13:15;7.90;;;2.30;;
25449;SDS011;13371;52.080;5.624;2022-10-16T05:15:40;2.75;;;1.90;;
25449;SDS011;13371;52.080;5.624;2022-10-16T05:18:06;4.82;;;1.90;;
25449;SDS011;13371;52.080;5.624;2022-10-16T05:20:32;3.15;;;1.77;;
25449;SDS011;13371;52.080;5.624;2022-10-16T05:22:57;4.93;;;2.45;;
25449;SDS011;13371;52.080;5.624;2022-10-16T05:25:23;7.70;;;2.10;;
25449;SDS011;13371;52.080;5.624;2022-10-16T05:27:49;3.08;;;2.08;;
25449;SDS011;13371;52.080;5.624;2022-10-16T05:30:15;5.43;;;2.10;;
25449;SDS011;13371;52.080;5.624;2022-10-16T05:32:45;5.00;;;1.95;;
25449;SDS011;13371;52.080;5.624;2022-10-16T05:35:12;8.93;;;2.35;;
25449;SDS011;13371;52.080;5.624;2022-10-16T05:37:38;5.15;;;2.55;;
25449;SDS011;13371;52.080;5.624;2022-10-16T05:40:03;4.28;;;2.20;;
25449;SDS011;13371;52.080;5.624;2022-10-16T05:42:29;3.30;;;2.22;;
25449;SDS011;13371;52.080;5.624;2022-10-16T05:44:55;5.68;;;2.40;;
25449;SDS011;13371;52.080;5.624;2022-10-16T05:47:21;5.85;;;2.03;;
25449;SDS011;13371;52.080;5.624;2022-10-16T05:49:46;5.13;;;2.17;;
25449;SDS011;13371;52.080;5.624;2022-10-16T05:52:12;9.40;;;2.80;;
25449;SDS011;13371;52.080;5.624;2022-10-16T05:54:37;3.70;;;2.20;;
25449;SDS011;13371;52.080;5.624;2022-10-16T05:57:03;5.57;;;2.50;;
25449;SDS011;13371;52.080;5.624;2022-10-16T05:59:30;3.45;;;2.20;;
25449;SDS011;13371;52.080;5.624;2022-10-16T06:01:56;5.70;;;2.30;;
25449;SDS011;13371;52.080;5.624;2022-10-16T06:04:22;6.22;;;2.03;;
25449;SDS011;13371;52.080;5.624;2022-10-16T06:06:47;5.13;;;2.35;;
25449;SDS011;13371;52.080;5.624;2022-10-16T06:09:13;6.30;;;2.70;;
25449;SDS011;13371;52.080;5.624;2022-10-16T06:11:38;7.47;;;2.35;;
25449;SDS011;13371;52.080;5.624;2022-10-16T06:14:04;6.88;;;2.38;;
25449;SDS011;13371;52.080;5.624;2022-10-16T06:16:31;4.43;;;2.40;;
25449;SDS011;13371;52.080;5.624;2022-10-16T06:18:58;9.70;;;2.42;;
25449;SDS011;13371;52.080;5.624;2022-10-16T06:21:25;5.53;;;2.33;;
25449;SDS011;13371;52.080;5.624;2022-10-16T06:23:51;4.32;;;2.40;;
25449;SDS011;13371;52.080;5.624;2022-10-16T06:26:18;3.80;;;2.60;;
25449;SDS011;13371;52.080;5.624;2022-10-16T06:28:45;8.35;;;3.17;;
25449;SDS011;13371;52.080;5.624;2022-10-16T06:31:11;4.25;;;2.30;;
25449;SDS011;13371;52.080;5.624;2022-10-16T06:33:38;10.88;;;2.65;;
25449;SDS011;13371;52.080;5.624;2022-10-16T06:36:11;4.90;;;2.40;;
25449;SDS011;13371;52.080;5.624;2022-10-16T06:38:40;3.88;;;2.03;;
25449;SDS011;13371;52.080;5.624;2022-10-16T06:41:07;3.50;;;2.40;;
25449;SDS011;13371;52.080;5.624;2022-10-16T06:43:34;6.90;;;2.22;;
25449;SDS011;13371;52.080;5.624;2022-10-16T06:46:03;4.65;;;2.20;;
25449;SDS011;13371;52.080;5.624;2022-10-16T06:48:29;4.97;;;2.60;;
25449;SDS011;13371;52.080;5.624;2022-10-16T06:51:13;6.50;;;2.80;;
25449;SDS011;13371;52.080;5.624;2022-10-16T06:53:42;5.85;;;2.30;;
25449;SDS011;13371;52.080;5.624;2022-10-16T06:56:09;6.43;;;2.53;;
25449;SDS011;13371;52.080;5.624;2022-10-16T06:58:37;3.05;;;2.15;;
25449;SDS011;13371;52.080;5.624;2022-10-16T07:01:03;4.50;;;2.08;;
25449;SDS011;13371;52.080;5.624;2022-10-16T07:03:29;5.57;;;2.60;;
25449;SDS011;13371;52.080;5.624;2022-10-16T07:05:55;4.82;;;2.13;;
25449;SDS011;13371;52.080;5.624;2022-10-16T07:08:21;8.25;;;2.65;;
25449;SDS011;13371;52.080;5.624;2022-10-16T07:10:46;3.15;;;1.90;;
25449;SDS011;13371;52.080;5.624;2022-10-16T07:13:12;5.18;;;2.33;;
25449;SDS011;13371;52.080;5.624;2022-10-16T07:15:39;5.20;;;2.30;;
25449;SDS011;13371;52.080;5.624;2022-10-16T07:18:05;5.55;;;2.00;;
25449;SDS011;13371;52.080;5.624;2022-10-16T07:20:31;8.32;;;2.58;;
25449;SDS011;13371;52.080;5.624;2022-10-16T07:22:57;3.05;;;2.10;;
25449;SDS011;13371;52.080;5.624;2022-10-16T07:25:22;4.40;;;2.10;;
25449;SDS011;13371;52.080;5.624;2022-10-16T07:27:48;3.00;;;1.75;;
25449;SDS011;13371;52.080;5.624;2022-10-16T07:30:13;6.30;;;2.00;;
25449;SDS011;13371;52.080;5.624;2022-10-16T07:32:39;3.47;;;1.88;;
25449;SDS011;13371;52.080;5.624;2022-10-16T07:35:05;3.88;;;2.10;;
25449;SDS011;13371;52.080;5.624;2022-10-16T07:37:31;4.03;;;2.03;;
25449;SDS011;13371;52.080;5.624;2022-10-16T07:39:57;7.82;;;1.80;;
25449;SDS011;13371;52.080;5.624;2022-10-16T07:42:22;3.00;;;1.90;;
25449;SDS011;13371;52.080;5.624;2022-10-16T07:44:48;7.53;;;2.20;;
25449;SDS011;13371;52.080;5.624;2022-10-16T07:47:14;4.70;;;2.28;;
25449;SDS011;13371;52.080;5.624;2022-10-16T07:49:39;4.32;;;2.35;;
25449;SDS011;13371;52.080;5.624;2022-10-16T07:52:05;3.88;;;2.08;;
25449;SDS011;13371;52.080;5.624;2022-10-16T07:54:30;3.92;;;1.90;;
25449;SDS011;13371;52.080;5.624;2022-10-16T07:56:56;5.63;;;1.85;;
25449;SDS011;13371;52.080;5.624;2022-10-16T07:59:21;3.47;;;2.20;;
25449;SDS011;13371;52.080;5.624;2022-10-16T08:01:48;5.50;;;2.45;;
25449;SDS011;13371;52.080;5.624;2022-10-16T08:04:14;3.85;;;2.10;;
25449;SDS011;13371;52.080;5.624;2022-10-16T08:06:40;4.47;;;2.20;;
25449;SDS011;13371;52.080;5.624;2022-10-16T08:09:06;2.75;;;2.05;;
25449;SDS011;13371;52.080;5.624;2022-10-16T08:11:40;4.80;;;2.30;;
25449;SDS011;13371;52.080;5.624;2022-10-16T08:14:05;5.80;;;2.30;;
25449;SDS011;13371;52.080;5.624;2022-10-16T08:16:31;5.80;;;1.98;;
25449;SDS011;13371;52.080;5.624;2022-10-16T08:18:57;4.95;;;2.22;;
25449;SDS011;13371;52.080;5.624;2022-10-16T08:21:22;4.70;;;2.08;;
25449;SDS011;13371;52.080;5.624;2022-10-16T08:23:52;5.43;;;2.03;;
25449;SDS011;13371;52.080;5.624;2022-10-16T08:26:18;7.88;;;1.80;;
25449;SDS011;13371;52.080;5.624;2022-10-16T08:28:44;6.07;;;2.00;;
25449;SDS011;13371;52.080;5.624;2022-10-16T08:31:11;4.68;;;1.52;;
25449;SDS011;13371;52.080;5.624;2022-10-16T08:33:38;2.88;;;1.70;;
25449;SDS011;13371;52.080;5.624;2022-10-16T08:36:06;5.55;;;2.03;;
25449;SDS011;13371;52.080;5.624;2022-10-16T08:38:33;3.92;;;1.70;;
25449;SDS011;13371;52.080;5.624;2022-10-16T08:50:10;6.28;;;1.70;;
25449;SDS011;13371;52.080;5.624;2022-10-16T08:52:39;6.05;;;1.75;;
25449;SDS011;13371;52.080;5.624;2022-10-16T08:56:08;3.10;;;1.50;;
25449;SDS011;13371;52.080;5.624;2022-10-16T08:58:15;6.32;;;1.50;;
25449;SDS011;13371;52.080;5.624;2022-10-16T09:00:43;5.57;;;1.80;;
25449;SDS011;13371;52.080;5.624;2022-10-16T09:03:22;6.30;;;1.50;;
25449;SDS011;13371;52.080;5.624;2022-10-16T09:06:05;5.80;;;1.60;;
25449;SDS011;13371;52.080;5.624;2022-10-16T09:11:35;8.95;;;1.70;;
25449;SDS011;13371;52.080;5.624;2022-10-16T09:20:16;8.75;;;1.60;;
25449;SDS011;13371;52.080;5.624;2022-10-16T09:22:47;7.63;;;1.80;;
25449;SDS011;13371;52.080;5.624;2022-10-16T09:25:14;4.95;;;1.38;;
25449;SDS011;13371;52.080;5.624;2022-10-16T09:27:42;4.75;;;1.40;;
25449;SDS011;13371;52.080;5.624;2022-10-16T09:30:15;9.80;;;1.60;;
25449;SDS011;13371;52.080;5.624;2022-10-16T09:32:44;9.50;;;2.40;;
25449;SDS011;13371;52.080;5.624;2022-10-16T09:35:16;7.32;;;1.27;;
25449;SDS011;13371;52.080;5.624;2022-10-16T09:37:57;5.45;;;1.30;;
25449;SDS011;13371;52.080;5.624;2022-10-16T09:40:26;10.38;;;1.85;;
25449;SDS011;13371;52.080;5.624;2022-10-16T09:42:56;5.32;;;1.50;;
25449;SDS011;13371;52.080;5.624;2022-10-16T09:45:28;3.88;;;1.60;;
25449;SDS011;13371;52.080;5.624;2022-10-16T09:47:53;7.00;;;1.83;;
25449;SDS011;13371;52.080;5.624;2022-10-16T09:50:21;6.43;;;1.33;;
25449;SDS011;13371;52.080;5.624;2022-10-16T09:55:47;7.22;;;1.67;;
25449;SDS011;13371;52.080;5.624;2022-10-16T09:58:13;7.95;;;1.77;;
25449;SDS011;13371;52.080;5.624;2022-10-16T10:00:39;9.95;;;2.22;;
25449;SDS011;13371;52.080;5.624;2022-10-16T10:03:13;12.27;;;1.75;;
25449;SDS011;13371;52.080;5.624;2022-10-16T10:05:48;8.85;;;2.05;;
25449;SDS011;13371;52.080;5.624;2022-10-16T10:08:16;10.00;;;1.75;;
25449;SDS011;13371;52.080;5.624;2022-10-16T10:10:43;9.48;;;1.45;;
25449;SDS011;13371;52.080;5.624;2022-10-16T10:13:17;10.02;;;1.80;;
25449;SDS011;13371;52.080;5.624;2022-10-16T10:15:46;9.90;;;1.73;;
25449;SDS011;13371;52.080;5.624;2022-10-16T10:18:19;8.32;;;1.70;;
25449;SDS011;13371;52.080;5.624;2022-10-16T10:20:56;12.02;;;1.90;;
25449;SDS011;13371;52.080;5.624;2022-10-16T10:23:24;11.27;;;2.28;;
25449;SDS011;13371;52.080;5.624;2022-10-16T10:34:16;8.80;;;1.50;;
25449;SDS011;13371;52.080;5.624;2022-10-16T10:37:11;9.15;;;1.80;;
25449;SDS011;13371;52.080;5.624;2022-10-16T10:40:00;12.65;;;2.53;;
25449;SDS011;13371;52.080;5.624;2022-10-16T10:42:36;10.45;;;1.73;;
25449;SDS011;13371;52.080;5.624;2022-10-16T10:45:14;11.02;;;2.05;;
25449;SDS011;13371;52.080;5.624;2022-10-16T10:48:03;8.32;;;1.63;;
25449;SDS011;13371;52.080;5.624;2022-10-16T10:50:57;7.53;;;1.73;;
25449;SDS011;13371;52.080;5.624;2022-10-16T11:06:58;8.95;;;1.70;;
25449;SDS011;13371;52.080;5.624;2022-10-16T11:09:41;7.57;;;1.85;;
25449;SDS011;13371;52.080;5.624;2022-10-16T11:12:22;11.13;;;1.63;;
25449;SDS011;13371;52.080;5.624;2022-10-16T11:14:57;8.10;;;1.92;;
25449;SDS011;13371;52.080;5.624;2022-10-16T11:17:42;12.65;;;1.83;;
25449;SDS011;13371;52.080;5.624;2022-10-16T11:20:20;9.50;;;1.83;;
25449;SDS011;13371;52.080;5.624;2022-10-16T11:22:53;8.60;;;1.88;;
25449;SDS011;13371;52.080;5.624;2022-10-16T11:25:29;6.82;;;1.67;;
25449;SDS011;13371;52.080;5.624;2022-10-16T11:28:16;6.30;;;1.27;;
25449;SDS011;13371;52.080;5.624;2022-10-16T11:36:12;8.18;;;1.75;;
25449;SDS011;13371;52.080;5.624;2022-10-16T11:39:02;7.78;;;1.20;;
25449;SDS011;13371;52.080;5.624;2022-10-16T11:41:37;9.80;;;1.42;;
25449;SDS011;13371;52.080;5.624;2022-10-16T11:47:35;6.93;;;1.45;;
25449;SDS011;13371;52.080;5.624;2022-10-16T11:55:41;8.50;;;1.63;;
25449;SDS011;13371;52.080;5.624;2022-10-16T12:03:46;11.95;;;1.85;;
25449;SDS011;13371;52.080;5.624;2022-10-16T12:06:34;11.10;;;1.73;;
25449;SDS011;13371;52.080;5.624;2022-10-16T12:09:05;6.43;;;1.30;;
25449;SDS011;13371;52.080;5.624;2022-10-16T12:11:45;9.23;;;1.85;;
25449;SDS011;13371;52.080;5.624;2022-10-16T12:16:56;8.63;;;1.60;;
25449;SDS011;13371;52.080;5.624;2022-10-16T12:19:25;9.43;;;2.00;;
25449;SDS011;13371;52.080;5.624;2022-10-16T12:21:54;12.00;;;1.63;;
25449;SDS011;13371;52.080;5.624;2022-10-16T12:24:38;10.00;;;1.63;;
25449;SDS011;13371;52.080;5.624;2022-10-16T12:27:20;14.60;;;2.13;;
25449;SDS011;13371;52.080;5.624;2022-10-16T12:29:58;12.35;;;1.60;;
25449;SDS011;13371;52.080;5.624;2022-10-16T12:32:30;11.98;;;1.63;;
25449;SDS011;13371;52.080;5.624;2022-10-16T12:34:58;10.95;;;1.75;;
25449;SDS011;13371;52.080;5.624;2022-10-16T12:37:30;10.75;;;1.35;;
25449;SDS011;13371;52.080;5.624;2022-10-16T12:40:11;7.43;;;1.33;;
25449;SDS011;13371;52.080;5.624;2022-10-16T12:42:39;12.07;;;1.83;;
25449;SDS011;13371;52.080;5.624;2022-10-16T12:47:50;12.75;;;2.00;;
25449;SDS011;13371;52.080;5.624;2022-10-16T12:50:26;9.70;;;1.67;;
25449;SDS011;13371;52.080;5.624;2022-10-16T12:53:00;12.30;;;2.03;;
25449;SDS011;13371;52.080;5.624;2022-10-16T12:55:27;11.40;;;1.75;;
25449;SDS011;13371;52.080;5.624;2022-10-16T12:58:17;15.27;;;2.47;;
25449;SDS011;13371;52.080;5.624;2022-10-16T13:01:12;10.10;;;1.73;;
25449;SDS011;13371;52.080;5.624;2022-10-16T13:03:55;8.38;;;1.48;;
25449;SDS011;13371;52.080;5.624;2022-10-16T13:09:14;12.98;;;2.00;;
25449;SDS011;13371;52.080;5.624;2022-10-16T13:12:07;11.25;;;1.45;;
25449;SDS011;13371;52.080;5.624;2022-10-16T13:14:56;10.32;;;1.83;;
25449;SDS011;13371;52.080;5.624;2022-10-16T13:17:39;8.80;;;1.70;;
25449;SDS011;13371;52.080;5.624;2022-10-16T13:26:17;10.35;;;1.90;;
25449;SDS011;13371;52.080;5.624;2022-10-16T13:28:49;11.00;;;2.08;;
25449;SDS011;13371;52.080;5.624;2022-10-16T13:31:21;5.53;;;1.70;;
25449;SDS011;13371;52.080;5.624;2022-10-16T13:33:52;12.65;;;2.08;;
25449;SDS011;13371;52.080;5.624;2022-10-16T13:36:25;9.30;;;1.52;;
25449;SDS011;13371;52.080;5.624;2022-10-16T13:38:59;14.00;;;1.83;;
25449;SDS011;13371;52.080;5.624;2022-10-16T13:41:32;9.52;;;1.50;;
25449;SDS011;13371;52.080;5.624;2022-10-16T13:43:57;6.57;;;1.48;;
25449;SDS011;13371;52.080;5.624;2022-10-16T13:46:24;8.18;;;1.55;;
25449;SDS011;13371;52.080;5.624;2022-10-16T13:51:24;8.20;;;1.63;;
25449;SDS011;13371;52.080;5.624;2022-10-16T13:53:50;8.27;;;1.60;;
25449;SDS011;13371;52.080;5.624;2022-10-16T13:56:17;11.00;;;1.70;;
25449;SDS011;13371;52.080;5.624;2022-10-16T13:58:45;11.27;;;1.60;;
25449;SDS011;13371;52.080;5.624;2022-10-16T14:01:19;10.02;;;1.40;;
25449;SDS011;13371;52.080;5.624;2022-10-16T14:03:48;7.82;;;1.40;;
25449;SDS011;13371;52.080;5.624;2022-10-16T14:06:16;8.00;;;1.95;;
25449;SDS011;13371;52.080;5.624;2022-10-16T14:08:48;11.55;;;1.60;;
25449;SDS011;13371;52.080;5.624;2022-10-16T14:11:22;7.43;;;1.67;;
25449;SDS011;13371;52.080;5.624;2022-10-16T14:13:49;10.25;;;1.63;;
25449;SDS011;13371;52.080;5.624;2022-10-16T14:16:36;9.35;;;1.50;;
25449;SDS011;13371;52.080;5.624;2022-10-16T14:19:05;8.95;;;1.45;;
25449;SDS011;13371;52.080;5.624;2022-10-16T14:21:31;6.65;;;1.40;;
25449;SDS011;13371;52.080;5.624;2022-10-16T14:23:58;8.35;;;1.50;;
25449;SDS011;13371;52.080;5.624;2022-10-16T14:26:25;11.30;;;1.30;;
25449;SDS011;13371;52.080;5.624;2022-10-16T14:29:08;12.20;;;1.30;;
25449;SDS011;13371;52.080;5.624;2022-10-16T14:31:37;7.07;;;1.60;;
25449;SDS011;13371;52.080;5.624;2022-10-16T14:34:04;14.82;;;2.15;;
25449;SDS011;13371;52.080;5.624;2022-10-16T14:36:47;9.30;;;2.33;;
25449;SDS011;13371;52.080;5.624;2022-10-16T14:39:16;8.23;;;1.92;;
25449;SDS011;13371;52.080;5.624;2022-10-16T14:41:45;8.45;;;2.08;;
25449;SDS011;13371;52.080;5.624;2022-10-16T14:44:12;6.60;;;1.58;;
25449;SDS011;13371;52.080;5.624;2022-10-16T14:46:39;10.93;;;2.22;;
25449;SDS011;13371;52.080;5.624;2022-10-16T14:51:40;10.68;;;1.60;;
25449;SDS011;13371;52.080;5.624;2022-10-16T14:54:08;16.75;;;2.55;;
25449;SDS011;13371;52.080;5.624;2022-10-16T14:56:45;13.50;;;1.88;;
25449;SDS011;13371;52.080;5.624;2022-10-16T14:59:18;12.13;;;1.50;;
25449;SDS011;13371;52.080;5.624;2022-10-16T15:01:56;9.70;;;1.58;;
25449;SDS011;13371;52.080;5.624;2022-10-16T15:04:22;8.57;;;1.80;;
25449;SDS011;13371;52.080;5.624;2022-10-16T15:06:47;13.10;;;1.92;;
25449;SDS011;13371;52.080;5.624;2022-10-16T15:09:13;8.93;;;1.50;;
25449;SDS011;13371;52.080;5.624;2022-10-16T15:11:39;9.95;;;1.67;;
25449;SDS011;13371;52.080;5.624;2022-10-16T15:14:05;8.45;;;1.67;;
25449;SDS011;13371;52.080;5.624;2022-10-16T15:16:31;14.00;;;2.17;;
25449;SDS011;13371;52.080;5.624;2022-10-16T15:18:57;17.95;;;1.73;;
25449;SDS011;13371;52.080;5.624;2022-10-16T15:21:29;10.43;;;2.63;;
25449;SDS011;13371;52.080;5.624;2022-10-16T15:23:56;12.43;;;2.08;;
25449;SDS011;13371;52.080;5.624;2022-10-16T15:26:24;18.95;;;2.38;;
25449;SDS011;13371;52.080;5.624;2022-10-16T15:28:50;9.85;;;1.67;;
25449;SDS011;13371;52.080;5.624;2022-10-16T15:31:16;13.05;;;1.85;;
25449;SDS011;13371;52.080;5.624;2022-10-16T15:33:42;14.85;;;1.83;;
25449;SDS011;13371;52.080;5.624;2022-10-16T15:36:07;13.13;;;2.28;;
25449;SDS011;13371;52.080;5.624;2022-10-16T15:38:33;12.68;;;2.20;;
25449;SDS011;13371;52.080;5.624;2022-10-16T15:40:59;10.68;;;1.70;;
25449;SDS011;13371;52.080;5.624;2022-10-16T15:43:25;8.75;;;1.20;;
25449;SDS011;13371;52.080;5.624;2022-10-16T15:48:27;10.32;;;1.20;;
25449;SDS011;13371;52.080;5.624;2022-10-16T15:50:53;13.35;;;2.03;;
25449;SDS011;13371;52.080;5.624;2022-10-16T15:53:19;8.48;;;2.10;;
25449;SDS011;13371;52.080;5.624;2022-10-16T15:55:44;12.18;;;2.42;;
25449;SDS011;13371;52.080;5.624;2022-10-16T15:58:10;12.65;;;2.17;;
25449;SDS011;13371;52.080;5.624;2022-10-16T16:00:35;8.50;;;1.80;;
25449;SDS011;13371;52.080;5.624;2022-10-16T16:03:01;4.82;;;1.90;;
25449;SDS011;13371;52.080;5.624;2022-10-16T16:05:26;10.55;;;3.00;;
25449;SDS011;13371;52.080;5.624;2022-10-16T16:07:52;14.70;;;3.08;;
25449;SDS011;13371;52.080;5.624;2022-10-16T16:10:18;13.95;;;2.50;;
25449;SDS011;13371;52.080;5.624;2022-10-16T16:12:46;8.88;;;2.42;;
25449;SDS011;13371;52.080;5.624;2022-10-16T16:15:16;15.57;;;2.40;;
25449;SDS011;13371;52.080;5.624;2022-10-16T16:17:43;12.75;;;2.50;;
25449;SDS011;13371;52.080;5.624;2022-10-16T16:20:09;35.47;;;20.98;;
25449;SDS011;13371;52.080;5.624;2022-10-16T16:22:35;24.67;;;10.70;;
25449;SDS011;13371;52.080;5.624;2022-10-16T16:25:00;13.45;;;3.47;;
25449;SDS011;13371;52.080;5.624;2022-10-16T16:27:26;16.52;;;2.33;;
25449;SDS011;13371;52.080;5.624;2022-10-16T16:29:54;13.18;;;2.20;;
25449;SDS011;13371;52.080;5.624;2022-10-16T16:32:20;8.57;;;2.20;;
25449;SDS011;13371;52.080;5.624;2022-10-16T16:34:46;12.45;;;1.65;;
25449;SDS011;13371;52.080;5.624;2022-10-16T16:37:12;13.10;;;1.58;;
25449;SDS011;13371;52.080;5.624;2022-10-16T16:39:37;11.70;;;2.40;;
25449;SDS011;13371;52.080;5.624;2022-10-16T16:42:03;19.95;;;7.65;;
25449;SDS011;13371;52.080;5.624;2022-10-16T16:44:31;14.85;;;3.45;;
25449;SDS011;13371;52.080;5.624;2022-10-16T16:46:56;15.95;;;6.75;;